Aktualne dane pomiarowe

Uwaga, wersja testowa! Automatyczne pobieranie danych za pomocą narzędzi lub skryptów to umożliwiających jest zabronione.

Dane meteo z obszaru Polski uzyskane na podstawie depesz SYNOP pobieranych co godzinę z NWS. Najedź myszką na symbol przedstawiony w tabeli, aby uzyskać informacje co do jego znaczenia. Prosimy pamiętać, że to testowa wersja strony, która jeszcze nie jest ukończona. Stworzono również jest krótki FAQ dotyczący korzystania z tej podstrony Anomalie temperatury w chwili obecnej odniesione są do okresu referencyjnego 1951-2016. Okres ten będzie później zmieniony na 1981-2010. Kliknij ikonę aby pobrać plik CSV. Kliknij ikonę aby wygenerować mapę synoptyczną dla danego terminu.

Wybierz Datę:    

        

Sandomierz (12585)

Dane terminowe dla wybranej stacji. Kliknij datę, aby otrzymać dane z tego terminu dla wszystkich stacji.

TemperaturaZachmurzenieWiatrCiśnienieOpadyPogoda
 Data t td wb tx tn tg rh  Nt Nl Cl Cm Ch ws wd g1 g2 wx mslp ppp ch 24h 12h t ww ww w1 w2  
2019-06-22 23:00:00 17.5 12.6 14.3--- 7350.0--3wx--31019.8 993.9 0.2---------
2019-06-22 22:00:00 18.3 13.2 15.0--- 7250.0--2wx--21019.8 994.0 0.3---------
2019-06-22 21:00:00 18.8 14.3 15.8--- 7545.0--2wx--21019.8 994.0 0.3---------
2019-06-22 20:00:00 19.7 16.0 17.1--- 7940.0--2wx--21019.4 993.7 0.1---------
2019-06-22 19:00:00 20.8 16.4 17.8--- 7635.0--1wx--11019.3 993.7 -0.1---------
2019-06-22 18:00:00 22.3 16.1 18.2 25.3 18.4- 6845.0--2wx-821019.1 993.7 0.0- 0.012------
2019-06-22 17:00:00 22.5 16.1 18.2--- 6740.0--2wx--21019.0 993.6 -0.3---------
2019-06-22 16:00:00 23.4 15.7 18.3--- 6235.0--3wx-831019.1 993.8 -0.5---------
2019-06-22 15:00:00 24.9 15.0 18.6--- 5435.0--4wx--41018.9 993.7 -1.2---------
2019-06-22 14:00:00 24.4 16.6 19.2--- 6230.0--4wx--41019.2 993.9 -1.4---------
2019-06-22 13:00:00 24.5 16.5 19.2--- 6130.0--3wx--31019.6 994.3 -1.2---------
2019-06-22 12:00:00 24.7 17.7 20.0--- 6535.0--3wx---1020.2 994.9 -0.4---------
2019-06-22 11:00:00 22.6 16.4 18.4--- 6829.0--4wx---1020.7 995.3 0.3---------
2019-06-22 10:00:00 21.8 18.0 19.1--- 7928.0--3wx--31021.0 995.5 0.9---------
2019-06-22 09:00:00 20.6 16.8 18.0--- 7924.0--4wx--41020.9 995.3 0.9---------
2019-06-22 08:00:00 19.7 17.3 18.0--- 8617.0--3wx--31020.7 995.0 1.1---------
2019-06-22 07:00:00 18.9 17.2 17.7--- 9012.0--4wx--41020.4 994.6 1.1---------
2019-06-22 06:00:00 18.4 17.6 17.8 18.4 15.8 15 958.0--4wx--41020.2 994.4 1.3 6.4 0.212wx---- 6.6
2019-06-22 05:00:00 18.1 17.9 17.9--- 992.8--3wx--31019.7 993.9 1.4---wx-----
2019-06-22 04:00:00 17.6 17.6 17.6--- 1002.6--2wx--21019.3 993.5 1.1---wx-----
2019-06-22 03:00:00 16.9 16.7 16.7--- 993.4--3wx--31019.0 993.1 1.3---wx-----
2019-06-22 02:00:00 16.8 16.8 16.8--- 1004.0--3wx--31018.4 992.5 1.1---wx-----
2019-06-22 01:00:00 15.9 15.7 15.7--- 992.9--1wx--11018.4 992.4 0.8---wx-----
2019-06-22 00:00:00 15.9 15.6 15.7--- 983.0--1wx--11017.8 991.8 0.5- 0.16wx-----
2019-06-21 23:00:00 16.3 16.0 16.1--- 983.6--1wx--11017.3 991.4 0.5---wx-----
2019-06-21 22:00:00 16.4 16.1 16.2--- 983.0--1wx--11017.5 991.6 1.8---wx-----
2019-06-21 21:00:00 16.7 16.4 16.5--- 984.4--1wx--11017.2 991.3 1.7---wx-----
2019-06-21 20:00:00 17.4 16.9 17.0--- 976.0--1wx--11016.7 990.9 0.2---wx-----
2019-06-21 19:00:00 17.7 16.7 17.0--- 9418.0--1wx--11015.5 989.8 -0.1---wx-----
2019-06-21 18:00:00 18.3 17.0 17.4 27.1 17.7- 9227.0--3wx-1731015.3 989.6 0.5- 6.012wx-----
2019-06-21 17:00:00 17.8 17.3 17.4--- 976.0--3wx---1016.5 990.7 2.8---wx-----
2019-06-21 16:00:00 18.3 16.8 17.2--- 9124.0--2wx--21015.6 989.9 2.0---wx-----
2019-06-21 15:00:00 18.2 15.3 16.2--- 8330.0--6wx---1014.8 989.1 0.5---wx-----
2019-06-21 14:00:00 26.3 18.7 21.1--- 6320.0--3wx--31012.8 987.9 -1.0---------
2019-06-21 13:00:00 26.6 20.2 22.1--- 6822.0--3wx--31012.8 987.9 -1.5---------
2019-06-21 12:00:00 25.1 20.4 21.8--- 7514.0--4wx--41013.7 988.6 -0.7- 0.06------
2019-06-21 11:00:00 25.0 19.8 21.4--- 7316.0--4wx---1014.0 988.9 0.0---------
2019-06-21 10:00:00 23.5 20.2 21.1--- 829.0--4wx---1014.6 989.4 0.7---------
2019-06-21 09:00:00 23.6 20.1 21.1--- 8112.0--3wx--31014.5 989.3 0.8---------
2019-06-21 08:00:00 22.8 19.6 20.5--- 8210.0--2wx--21014.2 988.9 0.7---wx-----
2019-06-21 07:00:00 21.0 20.0 20.3--- 946.0--2wx--21014.1 988.7 0.8---wx-----
2019-06-21 06:00:00 19.6 19.1 19.2 19.6 17.8 17 973.8--2wx--21014.0 988.5 1.2 1.1 1.012wx---- 10.1
2019-06-21 05:00:00 18.8 18.6 18.7--- 992.3--2wx--21013.8 988.2 0.9---wx-----
2019-06-21 04:00:00 18.5 18.3 18.3--- 992.1--2wx--21013.5 987.9 0.6---wx-----
2019-06-21 03:00:00 18.4 18.2 18.2--- 992.6--2wx--21012.9 987.3 0.3---wx-----
2019-06-21 02:00:00 18.4 18.1 18.2--- 984.0--2wx--21012.9 987.3 0.5---wx-----
2019-06-21 01:00:00 18.3 18.0 18.1--- 984.5--1wx--11012.9 987.3 0.3---wx-----
2019-06-21 00:00:00 18.2 17.9 18.0--- 983.4--2wx--21012.6 987.0 0.1- 0.96wx-----
9.0 ms

 

Print Friendly, PDF & Email